sensor_id;sensor_type;location;lat;lon;timestamp;P1;durP1;ratioP1;P2;durP2;ratioP2
6424;SDS011;12193;42.642;23.384;2023-07-20T00:01:40;7.90;;;3.23;;
6424;SDS011;12193;42.642;23.384;2023-07-20T00:04:14;7.17;;;2.80;;
6424;SDS011;12193;42.642;23.384;2023-07-20T00:06:43;8.93;;;2.80;;
6424;SDS011;12193;42.642;23.384;2023-07-20T03:08:44;9.30;;;4.43;;
6424;SDS011;12193;42.642;23.384;2023-07-20T03:11:14;7.43;;;4.20;;
6424;SDS011;12193;42.642;23.384;2023-07-20T03:13:44;10.07;;;4.73;;
6424;SDS011;12193;42.642;23.384;2023-07-20T03:16:18;9.83;;;4.97;;
6424;SDS011;12193;42.642;23.384;2023-07-20T03:18:47;9.43;;;5.03;;
6424;SDS011;12193;42.642;23.384;2023-07-20T03:21:17;10.67;;;4.83;;
6424;SDS011;12193;42.642;23.384;2023-07-20T03:23:49;10.00;;;4.90;;
6424;SDS011;12193;42.642;23.384;2023-07-20T03:26:19;12.23;;;4.40;;
6424;SDS011;12193;42.642;23.384;2023-07-20T03:28:48;9.63;;;4.33;;
6424;SDS011;12193;42.642;23.384;2023-07-20T03:31:17;9.33;;;4.30;;
6424;SDS011;12193;42.642;23.384;2023-07-20T03:33:47;14.33;;;4.83;;
6424;SDS011;12193;42.642;23.384;2023-07-20T03:36:16;8.10;;;4.57;;
6424;SDS011;12193;42.642;23.384;2023-07-20T03:38:46;8.50;;;4.40;;
6424;SDS011;12193;42.642;23.384;2023-07-20T03:41:17;9.83;;;4.90;;
6424;SDS011;12193;42.642;23.384;2023-07-20T03:43:48;11.70;;;4.80;;
6424;SDS011;12193;42.642;23.384;2023-07-20T03:46:17;10.07;;;4.80;;
6424;SDS011;12193;42.642;23.384;2023-07-20T03:48:47;16.40;;;5.07;;
6424;SDS011;12193;42.642;23.384;2023-07-20T03:51:16;13.17;;;5.50;;
6424;SDS011;12193;42.642;23.384;2023-07-20T03:53:45;14.47;;;5.47;;
6424;SDS011;12193;42.642;23.384;2023-07-20T03:56:17;10.87;;;4.67;;
6424;SDS011;12193;42.642;23.384;2023-07-20T03:58:47;13.23;;;4.93;;
6424;SDS011;12193;42.642;23.384;2023-07-20T04:01:16;10.10;;;5.07;;
6424;SDS011;12193;42.642;23.384;2023-07-20T04:03:45;13.63;;;5.13;;
6424;SDS011;12193;42.642;23.384;2023-07-20T04:06:14;8.27;;;4.60;;
6424;SDS011;12193;42.642;23.384;2023-07-20T04:08:44;15.17;;;4.87;;
6424;SDS011;12193;42.642;23.384;2023-07-20T04:11:13;12.47;;;4.77;;
6424;SDS011;12193;42.642;23.384;2023-07-20T04:13:45;11.10;;;5.10;;
6424;SDS011;12193;42.642;23.384;2023-07-20T04:16:14;12.17;;;6.10;;
6424;SDS011;12193;42.642;23.384;2023-07-20T04:18:45;11.90;;;5.27;;
6424;SDS011;12193;42.642;23.384;2023-07-20T04:21:15;12.53;;;5.40;;
6424;SDS011;12193;42.642;23.384;2023-07-20T04:23:44;11.27;;;4.73;;
6424;SDS011;12193;42.642;23.384;2023-07-20T04:26:13;11.50;;;4.30;;
6424;SDS011;12193;42.642;23.384;2023-07-20T04:28:46;11.70;;;5.40;;
6424;SDS011;12193;42.642;23.384;2023-07-20T04:31:16;12.37;;;5.33;;
6424;SDS011;12193;42.642;23.384;2023-07-20T04:33:46;9.53;;;4.87;;
6424;SDS011;12193;42.642;23.384;2023-07-20T04:36:15;12.37;;;6.13;;
6424;SDS011;12193;42.642;23.384;2023-07-20T04:38:45;11.23;;;5.23;;
6424;SDS011;12193;42.642;23.384;2023-07-20T04:41:14;12.87;;;5.10;;
6424;SDS011;12193;42.642;23.384;2023-07-20T04:43:46;10.60;;;4.70;;
6424;SDS011;12193;42.642;23.384;2023-07-20T04:46:16;8.03;;;4.53;;
6424;SDS011;12193;42.642;23.384;2023-07-20T04:48:47;11.03;;;5.17;;
6424;SDS011;12193;42.642;23.384;2023-07-20T04:51:16;11.00;;;4.57;;
6424;SDS011;12193;42.642;23.384;2023-07-20T04:53:46;10.83;;;5.53;;
6424;SDS011;12193;42.642;23.384;2023-07-20T04:56:15;14.00;;;4.90;;
6424;SDS011;12193;42.642;23.384;2023-07-20T04:58:48;9.40;;;4.60;;
6424;SDS011;12193;42.642;23.384;2023-07-20T05:01:17;12.40;;;4.93;;
6424;SDS011;12193;42.642;23.384;2023-07-20T05:03:46;9.40;;;4.93;;
6424;SDS011;12193;42.642;23.384;2023-07-20T05:06:15;10.17;;;4.47;;
6424;SDS011;12193;42.642;23.384;2023-07-20T05:08:45;12.10;;;4.63;;
6424;SDS011;12193;42.642;23.384;2023-07-20T05:11:14;10.60;;;4.53;;
6424;SDS011;12193;42.642;23.384;2023-07-20T05:13:43;14.33;;;5.07;;
6424;SDS011;12193;42.642;23.384;2023-07-20T05:16:15;8.93;;;4.77;;
6424;SDS011;12193;42.642;23.384;2023-07-20T05:18:45;9.93;;;4.40;;
6424;SDS011;12193;42.642;23.384;2023-07-20T05:21:14;12.53;;;4.87;;
6424;SDS011;12193;42.642;23.384;2023-07-20T05:23:43;9.83;;;5.27;;
6424;SDS011;12193;42.642;23.384;2023-07-20T05:26:13;12.07;;;6.00;;
6424;SDS011;12193;42.642;23.384;2023-07-20T05:28:42;9.57;;;5.03;;
6424;SDS011;12193;42.642;23.384;2023-07-20T05:31:12;9.23;;;5.10;;
6424;SDS011;12193;42.642;23.384;2023-07-20T05:33:44;9.33;;;4.87;;
6424;SDS011;12193;42.642;23.384;2023-07-20T05:36:22;13.10;;;4.93;;
6424;SDS011;12193;42.642;23.384;2023-07-20T05:38:51;15.10;;;5.47;;
6424;SDS011;12193;42.642;23.384;2023-07-20T05:41:21;10.20;;;4.87;;
6424;SDS011;12193;42.642;23.384;2023-07-20T05:43:50;7.97;;;4.63;;
6424;SDS011;12193;42.642;23.384;2023-07-20T05:46:22;6.43;;;4.63;;
6424;SDS011;12193;42.642;23.384;2023-07-20T05:48:52;8.90;;;4.40;;
6424;SDS011;12193;42.642;23.384;2023-07-20T05:51:21;9.03;;;4.70;;
6424;SDS011;12193;42.642;23.384;2023-07-20T05:53:50;7.03;;;4.80;;
6424;SDS011;12193;42.642;23.384;2023-07-20T05:56:20;9.67;;;5.87;;
6424;SDS011;12193;42.642;23.384;2023-07-20T05:58:49;8.80;;;4.50;;
6424;SDS011;12193;42.642;23.384;2023-07-20T06:01:18;9.83;;;4.80;;
6424;SDS011;12193;42.642;23.384;2023-07-20T06:03:53;9.33;;;4.10;;
6424;SDS011;12193;42.642;23.384;2023-07-20T06:06:22;13.73;;;5.50;;
6424;SDS011;12193;42.642;23.384;2023-07-20T06:08:51;7.10;;;4.17;;
6424;SDS011;12193;42.642;23.384;2023-07-20T06:11:20;8.23;;;4.00;;
6424;SDS011;12193;42.642;23.384;2023-07-20T06:13:50;11.60;;;4.47;;
6424;SDS011;12193;42.642;23.384;2023-07-20T06:16:22;8.83;;;4.40;;
6424;SDS011;12193;42.642;23.384;2023-07-20T06:18:51;16.00;;;3.97;;
6424;SDS011;12193;42.642;23.384;2023-07-20T06:21:20;10.77;;;4.40;;
6424;SDS011;12193;42.642;23.384;2023-07-20T06:23:50;8.13;;;3.70;;
6424;SDS011;12193;42.642;23.384;2023-07-20T06:26:19;10.10;;;3.80;;
6424;SDS011;12193;42.642;23.384;2023-07-20T06:28:49;9.93;;;3.87;;
6424;SDS011;12193;42.642;23.384;2023-07-20T06:31:18;10.10;;;3.43;;
6424;SDS011;12193;42.642;23.384;2023-07-20T06:33:50;12.20;;;4.33;;
6424;SDS011;12193;42.642;23.384;2023-07-20T06:36:19;12.33;;;3.77;;
6424;SDS011;12193;42.642;23.384;2023-07-20T06:38:48;8.33;;;3.80;;
6424;SDS011;12193;42.642;23.384;2023-07-20T06:41:18;10.63;;;4.77;;
6424;SDS011;12193;42.642;23.384;2023-07-20T06:43:48;10.40;;;4.57;;
6424;SDS011;12193;42.642;23.384;2023-07-20T06:46:18;10.63;;;4.23;;
6424;SDS011;12193;42.642;23.384;2023-07-20T06:48:50;12.00;;;4.43;;
6424;SDS011;12193;42.642;23.384;2023-07-20T06:51:19;15.30;;;5.30;;
6424;SDS011;12193;42.642;23.384;2023-07-20T06:53:49;9.50;;;4.40;;
6424;SDS011;12193;42.642;23.384;2023-07-20T06:56:18;13.30;;;5.10;;
6424;SDS011;12193;42.642;23.384;2023-07-20T06:58:47;12.07;;;4.47;;
6424;SDS011;12193;42.642;23.384;2023-07-20T07:01:16;8.07;;;4.10;;
6424;SDS011;12193;42.642;23.384;2023-07-20T07:03:50;10.43;;;4.87;;
6424;SDS011;12193;42.642;23.384;2023-07-20T07:06:19;11.83;;;4.10;;
6424;SDS011;12193;42.642;23.384;2023-07-20T07:08:49;11.20;;;4.57;;
6424;SDS011;12193;42.642;23.384;2023-07-20T07:11:18;14.45;;;4.63;;
6424;SDS011;12193;42.642;23.384;2023-07-20T07:13:47;11.07;;;4.68;;
6424;SDS011;12193;42.642;23.384;2023-07-20T07:16:17;12.70;;;4.70;;
6424;SDS011;12193;42.642;23.384;2023-07-20T07:18:47;13.10;;;4.27;;
6424;SDS011;12193;42.642;23.384;2023-07-20T07:21:19;13.40;;;4.70;;
6424;SDS011;12193;42.642;23.384;2023-07-20T07:23:49;12.40;;;4.73;;
6424;SDS011;12193;42.642;23.384;2023-07-20T07:26:19;12.27;;;5.00;;
6424;SDS011;12193;42.642;23.384;2023-07-20T07:28:48;15.87;;;4.83;;
6424;SDS011;12193;42.642;23.384;2023-07-20T07:31:17;15.38;;;4.90;;
6424;SDS011;12193;42.642;23.384;2023-07-20T07:33:46;15.85;;;5.40;;
6424;SDS011;12193;42.642;23.384;2023-07-20T07:36:19;14.65;;;5.45;;
6424;SDS011;12193;42.642;23.384;2023-07-20T07:38:50;14.50;;;5.82;;
6424;SDS011;12193;42.642;23.384;2023-07-20T07:41:19;17.33;;;5.28;;
6424;SDS011;12193;42.642;23.384;2023-07-20T07:43:49;15.27;;;5.65;;
6424;SDS011;12193;42.642;23.384;2023-07-20T07:46:18;15.60;;;5.70;;
6424;SDS011;12193;42.642;23.384;2023-07-20T07:48:50;11.25;;;5.03;;
6424;SDS011;12193;42.642;23.384;2023-07-20T07:51:19;15.57;;;5.95;;
6424;SDS011;12193;42.642;23.384;2023-07-20T07:53:48;12.82;;;5.75;;
6424;SDS011;12193;42.642;23.384;2023-07-20T07:56:17;14.85;;;5.22;;
6424;SDS011;12193;42.642;23.384;2023-07-20T07:58:48;18.05;;;6.38;;
6424;SDS011;12193;42.642;23.384;2023-07-20T08:01:17;16.52;;;6.13;;
6424;SDS011;12193;42.642;23.384;2023-07-20T08:03:50;14.15;;;5.85;;
6424;SDS011;12193;42.642;23.384;2023-07-20T08:06:20;13.10;;;5.65;;
6424;SDS011;12193;42.642;23.384;2023-07-20T08:08:50;20.67;;;5.88;;
6424;SDS011;12193;42.642;23.384;2023-07-20T08:11:19;14.07;;;5.28;;
6424;SDS011;12193;42.642;23.384;2023-07-20T08:13:48;15.35;;;5.15;;
6424;SDS011;12193;42.642;23.384;2023-07-20T08:16:17;12.70;;;5.53;;
6424;SDS011;12193;42.642;23.384;2023-07-20T08:18:47;14.23;;;5.70;;
6424;SDS011;12193;42.642;23.384;2023-07-20T08:21:19;10.50;;;4.80;;
6424;SDS011;12193;42.642;23.384;2023-07-20T08:23:48;12.82;;;5.60;;
6424;SDS011;12193;42.642;23.384;2023-07-20T08:26:17;12.82;;;5.55;;
6424;SDS011;12193;42.642;23.384;2023-07-20T08:28:48;14.70;;;4.90;;
6424;SDS011;12193;42.642;23.384;2023-07-20T08:31:17;16.05;;;5.13;;
6424;SDS011;12193;42.642;23.384;2023-07-20T08:33:49;13.02;;;4.63;;
6424;SDS011;12193;42.642;23.384;2023-07-20T08:36:19;14.57;;;5.05;;
6424;SDS011;12193;42.642;23.384;2023-07-20T08:38:48;13.07;;;5.22;;
6424;SDS011;12193;42.642;23.384;2023-07-20T08:41:18;16.15;;;4.53;;
6424;SDS011;12193;42.642;23.384;2023-07-20T08:43:48;12.18;;;4.30;;
6424;SDS011;12193;42.642;23.384;2023-07-20T08:46:19;14.10;;;4.30;;
6424;SDS011;12193;42.642;23.384;2023-07-20T08:48:53;8.73;;;3.95;;
6424;SDS011;12193;42.642;23.384;2023-07-20T08:51:24;8.77;;;3.72;;
6424;SDS011;12193;42.642;23.384;2023-07-20T08:53:54;9.07;;;3.90;;
6424;SDS011;12193;42.642;23.384;2023-07-20T08:56:23;8.63;;;3.40;;
6424;SDS011;12193;42.642;23.384;2023-07-20T08:58:54;7.75;;;3.80;;
6424;SDS011;12193;42.642;23.384;2023-07-20T09:01:25;10.93;;;3.50;;
6424;SDS011;12193;42.642;23.384;2023-07-20T09:03:59;13.52;;;3.60;;
6424;SDS011;12193;42.642;23.384;2023-07-20T09:06:29;11.98;;;3.53;;
6424;SDS011;12193;42.642;23.384;2023-07-20T09:09:00;10.68;;;3.35;;
6424;SDS011;12193;42.642;23.384;2023-07-20T09:11:30;9.35;;;3.17;;
6424;SDS011;12193;42.642;23.384;2023-07-20T09:14:02;10.20;;;3.20;;
6424;SDS011;12193;42.642;23.384;2023-07-20T09:16:33;17.45;;;3.90;;
6424;SDS011;12193;42.642;23.384;2023-07-20T09:19:18;8.02;;;3.30;;
6424;SDS011;12193;42.642;23.384;2023-07-20T09:21:49;10.90;;;3.45;;
6424;SDS011;12193;42.642;23.384;2023-07-20T09:24:19;11.15;;;3.35;;
6424;SDS011;12193;42.642;23.384;2023-07-20T09:26:51;11.43;;;3.22;;
6424;SDS011;12193;42.642;23.384;2023-07-20T09:29:20;9.25;;;3.20;;
6424;SDS011;12193;42.642;23.384;2023-07-20T09:32:00;12.10;;;3.42;;
6424;SDS011;12193;42.642;23.384;2023-07-20T09:34:32;12.13;;;3.63;;
6424;SDS011;12193;42.642;23.384;2023-07-20T09:37:02;7.88;;;3.05;;
6424;SDS011;12193;42.642;23.384;2023-07-20T09:39:32;10.05;;;3.25;;
6424;SDS011;12193;42.642;23.384;2023-07-20T09:42:11;13.55;;;3.80;;
6424;SDS011;12193;42.642;23.384;2023-07-20T09:44:43;12.52;;;3.30;;
6424;SDS011;12193;42.642;23.384;2023-07-20T09:47:14;10.93;;;3.25;;
6424;SDS011;12193;42.642;23.384;2023-07-20T09:49:57;9.13;;;3.40;;
6424;SDS011;12193;42.642;23.384;2023-07-20T09:52:29;12.43;;;3.28;;
6424;SDS011;12193;42.642;23.384;2023-07-20T09:55:01;9.43;;;2.97;;
6424;SDS011;12193;42.642;23.384;2023-07-20T09:57:32;10.20;;;3.05;;
6424;SDS011;12193;42.642;23.384;2023-07-20T10:00:03;6.15;;;3.00;;
6424;SDS011;12193;42.642;23.384;2023-07-20T10:02:42;9.55;;;3.30;;
6424;SDS011;12193;42.642;23.384;2023-07-20T10:05:15;8.50;;;3.08;;
6424;SDS011;12193;42.642;23.384;2023-07-20T10:07:47;5.15;;;2.92;;
6424;SDS011;12193;42.642;23.384;2023-07-20T10:10:18;7.90;;;3.20;;
6424;SDS011;12193;42.642;23.384;2023-07-20T10:12:48;8.50;;;3.30;;
6424;SDS011;12193;42.642;23.384;2023-07-20T10:15:19;7.13;;;2.83;;
6424;SDS011;12193;42.642;23.384;2023-07-20T10:17:56;7.70;;;2.97;;
6424;SDS011;12193;42.642;23.384;2023-07-20T10:20:30;9.98;;;3.58;;
6424;SDS011;12193;42.642;23.384;2023-07-20T10:23:02;7.13;;;3.30;;
6424;SDS011;12193;42.642;23.384;2023-07-20T10:25:32;7.28;;;3.42;;
6424;SDS011;12193;42.642;23.384;2023-07-20T10:28:03;7.80;;;2.97;;
6424;SDS011;12193;42.642;23.384;2023-07-20T10:30:34;5.75;;;2.65;;
6424;SDS011;12193;42.642;23.384;2023-07-20T10:33:04;9.45;;;4.60;;
6424;SDS011;12193;42.642;23.384;2023-07-20T10:41:22;11.18;;;3.60;;
6424;SDS011;12193;42.642;23.384;2023-07-20T10:43:58;8.00;;;3.20;;
6424;SDS011;12193;42.642;23.384;2023-07-20T10:46:42;6.72;;;2.92;;
6424;SDS011;12193;42.642;23.384;2023-07-20T10:49:13;10.30;;;3.22;;
6424;SDS011;12193;42.642;23.384;2023-07-20T10:51:49;7.35;;;3.00;;
6424;SDS011;12193;42.642;23.384;2023-07-20T10:54:34;9.23;;;3.25;;
6424;SDS011;12193;42.642;23.384;2023-07-20T10:57:28;7.20;;;2.60;;
6424;SDS011;12193;42.642;23.384;2023-07-20T11:00:08;6.73;;;3.23;;
6424;SDS011;12193;42.642;23.384;2023-07-20T11:02:46;7.95;;;3.20;;
6424;SDS011;12193;42.642;23.384;2023-07-20T11:08:11;8.38;;;3.20;;
6424;SDS011;12193;42.642;23.384;2023-07-20T11:10:41;8.48;;;3.20;;
6424;SDS011;12193;42.642;23.384;2023-07-20T11:13:17;6.43;;;2.78;;
6424;SDS011;12193;42.642;23.384;2023-07-20T11:15:48;8.15;;;3.30;;
6424;SDS011;12193;42.642;23.384;2023-07-20T11:18:32;8.35;;;3.50;;
6424;SDS011;12193;42.642;23.384;2023-07-20T11:21:06;10.70;;;3.30;;
6424;SDS011;12193;42.642;23.384;2023-07-20T11:23:41;8.13;;;3.67;;
6424;SDS011;12193;42.642;23.384;2023-07-20T11:26:12;11.00;;;3.70;;
6424;SDS011;12193;42.642;23.384;2023-07-20T11:28:41;6.53;;;3.10;;
6424;SDS011;12193;42.642;23.384;2023-07-20T11:31:13;7.38;;;3.40;;
6424;SDS011;12193;42.642;23.384;2023-07-20T11:33:43;7.72;;;3.28;;
6424;SDS011;12193;42.642;23.384;2023-07-20T11:36:12;7.72;;;3.70;;
6424;SDS011;12193;42.642;23.384;2023-07-20T11:38:45;7.90;;;3.60;;
6424;SDS011;12193;42.642;23.384;2023-07-20T11:41:15;12.07;;;4.22;;
6424;SDS011;12193;42.642;23.384;2023-07-20T11:43:44;10.65;;;4.15;;
6424;SDS011;12193;42.642;23.384;2023-07-20T11:46:14;8.63;;;4.57;;
6424;SDS011;12193;42.642;23.384;2023-07-20T11:48:44;9.40;;;4.90;;
6424;SDS011;12193;42.642;23.384;2023-07-20T11:51:14;10.65;;;5.60;;
6424;SDS011;12193;42.642;23.384;2023-07-20T11:53:48;14.30;;;5.30;;
6424;SDS011;12193;42.642;23.384;2023-07-20T11:56:18;10.27;;;5.30;;
6424;SDS011;12193;42.642;23.384;2023-07-20T11:58:47;12.63;;;5.60;;
6424;SDS011;12193;42.642;23.384;2023-07-20T12:01:17;10.27;;;5.85;;
6424;SDS011;12193;42.642;23.384;2023-07-20T12:03:47;10.77;;;5.72;;
6424;SDS011;12193;42.642;23.384;2023-07-20T12:06:17;9.93;;;5.00;;
6424;SDS011;12193;42.642;23.384;2023-07-20T12:08:50;11.35;;;4.85;;
6424;SDS011;12193;42.642;23.384;2023-07-20T12:11:35;9.98;;;4.82;;
6424;SDS011;12193;42.642;23.384;2023-07-20T12:14:06;11.85;;;5.18;;
6424;SDS011;12193;42.642;23.384;2023-07-20T12:16:37;9.80;;;4.57;;
6424;SDS011;12193;42.642;23.384;2023-07-20T12:19:07;7.63;;;4.75;;
6424;SDS011;12193;42.642;23.384;2023-07-20T12:21:37;10.45;;;5.30;;
6424;SDS011;12193;42.642;23.384;2023-07-20T12:24:11;10.95;;;4.60;;
6424;SDS011;12193;42.642;23.384;2023-07-20T12:26:40;11.48;;;5.75;;
6424;SDS011;12193;42.642;23.384;2023-07-20T12:29:09;12.63;;;5.80;;
6424;SDS011;12193;42.642;23.384;2023-07-20T12:31:39;11.65;;;4.63;;
6424;SDS011;12193;42.642;23.384;2023-07-20T12:34:08;11.13;;;4.30;;
6424;SDS011;12193;42.642;23.384;2023-07-20T12:36:37;9.50;;;4.70;;
6424;SDS011;12193;42.642;23.384;2023-07-20T12:39:06;11.85;;;4.43;;
6424;SDS011;12193;42.642;23.384;2023-07-20T12:41:39;7.72;;;3.88;;
6424;SDS011;12193;42.642;23.384;2023-07-20T12:44:08;9.88;;;3.70;;
6424;SDS011;12193;42.642;23.384;2023-07-20T12:46:37;15.90;;;3.90;;
6424;SDS011;12193;42.642;23.384;2023-07-20T12:49:07;8.32;;;3.80;;
6424;SDS011;12193;42.642;23.384;2023-07-20T12:51:37;9.02;;;4.00;;
6424;SDS011;12193;42.642;23.384;2023-07-20T12:54:06;11.30;;;3.90;;
6424;SDS011;12193;42.642;23.384;2023-07-20T12:56:37;13.13;;;3.42;;
6424;SDS011;12193;42.642;23.384;2023-07-20T12:59:07;9.77;;;3.85;;
6424;SDS011;12193;42.642;23.384;2023-07-20T13:01:36;10.18;;;3.90;;
6424;SDS011;12193;42.642;23.384;2023-07-20T13:04:07;9.88;;;3.60;;
6424;SDS011;12193;42.642;23.384;2023-07-20T13:06:36;6.15;;;3.60;;
6424;SDS011;12193;42.642;23.384;2023-07-20T13:09:07;9.98;;;3.40;;
6424;SDS011;12193;42.642;23.384;2023-07-20T13:11:39;8.95;;;3.42;;
6424;SDS011;12193;42.642;23.384;2023-07-20T13:14:09;7.88;;;3.58;;
6424;SDS011;12193;42.642;23.384;2023-07-20T13:16:38;10.48;;;3.80;;
6424;SDS011;12193;42.642;23.384;2023-07-20T13:19:08;13.45;;;3.38;;
6424;SDS011;12193;42.642;23.384;2023-07-20T13:21:37;13.02;;;3.47;;
6424;SDS011;12193;42.642;23.384;2023-07-20T13:24:08;9.63;;;3.97;;
6424;SDS011;12193;42.642;23.384;2023-07-20T13:26:40;6.90;;;4.03;;
6424;SDS011;12193;42.642;23.384;2023-07-20T13:29:09;9.65;;;3.33;;
6424;SDS011;12193;42.642;23.384;2023-07-20T13:31:38;8.82;;;3.50;;
6424;SDS011;12193;42.642;23.384;2023-07-20T13:34:08;10.27;;;3.58;;
6424;SDS011;12193;42.642;23.384;2023-07-20T13:36:37;8.57;;;3.47;;
6424;SDS011;12193;42.642;23.384;2023-07-20T13:39:06;6.22;;;3.00;;
6424;SDS011;12193;42.642;23.384;2023-07-20T13:41:35;10.23;;;3.00;;
6424;SDS011;12193;42.642;23.384;2023-07-20T13:44:08;9.43;;;3.40;;
6424;SDS011;12193;42.642;23.384;2023-07-20T13:46:37;10.25;;;3.40;;
6424;SDS011;12193;42.642;23.384;2023-07-20T13:49:06;7.10;;;3.50;;
6424;SDS011;12193;42.642;23.384;2023-07-20T13:51:35;6.15;;;3.03;;
6424;SDS011;12193;42.642;23.384;2023-07-20T13:54:06;6.07;;;2.83;;
6424;SDS011;12193;42.642;23.384;2023-07-20T13:56:35;7.97;;;3.22;;
6424;SDS011;12193;42.642;23.384;2023-07-20T13:59:04;6.38;;;3.17;;
6424;SDS011;12193;42.642;23.384;2023-07-20T14:01:36;11.13;;;3.58;;
6424;SDS011;12193;42.642;23.384;2023-07-20T14:04:06;8.98;;;3.40;;
6424;SDS011;12193;42.642;23.384;2023-07-20T14:06:35;12.20;;;3.55;;
6424;SDS011;12193;42.642;23.384;2023-07-20T14:09:04;7.53;;;3.10;;
6424;SDS011;12193;42.642;23.384;2023-07-20T14:11:34;10.82;;;3.45;;
6424;SDS011;12193;42.642;23.384;2023-07-20T14:14:03;7.57;;;3.45;;
6424;SDS011;12193;42.642;23.384;2023-07-20T14:16:35;11.50;;;3.20;;
6424;SDS011;12193;42.642;23.384;2023-07-20T14:19:04;17.13;;;6.13;;
6424;SDS011;12193;42.642;23.384;2023-07-20T14:21:34;8.18;;;3.10;;
6424;SDS011;12193;42.642;23.384;2023-07-20T14:24:03;11.60;;;3.42;;
6424;SDS011;12193;42.642;23.384;2023-07-20T14:26:33;10.65;;;3.90;;
6424;SDS011;12193;42.642;23.384;2023-07-20T14:29:02;8.35;;;3.40;;
6424;SDS011;12193;42.642;23.384;2023-07-20T14:31:32;10.15;;;3.47;;
6424;SDS011;12193;42.642;23.384;2023-07-20T14:34:03;8.95;;;3.50;;
6424;SDS011;12193;42.642;23.384;2023-07-20T14:36:33;10.85;;;3.25;;
6424;SDS011;12193;42.642;23.384;2023-07-20T14:39:03;8.68;;;2.95;;
6424;SDS011;12193;42.642;23.384;2023-07-20T14:41:38;12.55;;;3.38;;
6424;SDS011;12193;42.642;23.384;2023-07-20T14:44:10;9.70;;;3.10;;
6424;SDS011;12193;42.642;23.384;2023-07-20T14:46:42;5.90;;;3.08;;
6424;SDS011;12193;42.642;23.384;2023-07-20T14:49:11;9.63;;;3.28;;
6424;SDS011;12193;42.642;23.384;2023-07-20T14:51:41;7.00;;;2.72;;
6424;SDS011;12193;42.642;23.384;2023-07-20T14:54:13;7.45;;;2.90;;
6424;SDS011;12193;42.642;23.384;2023-07-20T14:56:49;8.55;;;2.92;;
6424;SDS011;12193;42.642;23.384;2023-07-20T14:59:19;6.60;;;2.97;;
6424;SDS011;12193;42.642;23.384;2023-07-20T15:01:51;8.05;;;3.20;;
6424;SDS011;12193;42.642;23.384;2023-07-20T15:04:21;9.55;;;3.58;;
6424;SDS011;12193;42.642;23.384;2023-07-20T15:06:50;7.95;;;3.10;;
6424;SDS011;12193;42.642;23.384;2023-07-20T15:09:20;9.00;;;3.10;;
6424;SDS011;12193;42.642;23.384;2023-07-20T15:11:50;13.48;;;3.50;;
6424;SDS011;12193;42.642;23.384;2023-07-20T15:14:19;10.27;;;3.47;;
6424;SDS011;12193;42.642;23.384;2023-07-20T15:16:51;7.38;;;3.05;;
6424;SDS011;12193;42.642;23.384;2023-07-20T15:19:20;8.82;;;3.30;;
6424;SDS011;12193;42.642;23.384;2023-07-20T15:21:49;8.73;;;3.33;;
6424;SDS011;12193;42.642;23.384;2023-07-20T15:24:18;12.40;;;4.55;;
6424;SDS011;12193;42.642;23.384;2023-07-20T15:26:48;11.50;;;3.30;;
6424;SDS011;12193;42.642;23.384;2023-07-20T15:29:17;8.50;;;3.38;;
6424;SDS011;12193;42.642;23.384;2023-07-20T15:31:46;9.00;;;3.10;;
6424;SDS011;12193;42.642;23.384;2023-07-20T15:34:19;7.22;;;3.03;;
6424;SDS011;12193;42.642;23.384;2023-07-20T15:36:49;9.02;;;3.28;;
6424;SDS011;12193;42.642;23.384;2023-07-20T15:39:18;8.82;;;3.13;;
6424;SDS011;12193;42.642;23.384;2023-07-20T15:41:50;5.82;;;2.88;;
6424;SDS011;12193;42.642;23.384;2023-07-20T15:44:19;10.30;;;3.40;;
6424;SDS011;12193;42.642;23.384;2023-07-20T15:46:48;8.80;;;3.20;;
6424;SDS011;12193;42.642;23.384;2023-07-20T15:49:20;10.60;;;3.50;;
6424;SDS011;12193;42.642;23.384;2023-07-20T15:51:50;11.17;;;3.40;;
6424;SDS011;12193;42.642;23.384;2023-07-20T15:54:19;15.97;;;6.13;;
6424;SDS011;12193;42.642;23.384;2023-07-20T15:56:49;10.80;;;4.07;;
6424;SDS011;12193;42.642;23.384;2023-07-20T15:59:19;8.30;;;3.33;;
6424;SDS011;12193;42.642;23.384;2023-07-20T16:01:48;10.37;;;3.10;;
6424;SDS011;12193;42.642;23.384;2023-07-20T16:04:20;6.37;;;3.10;;
6424;SDS011;12193;42.642;23.384;2023-07-20T16:06:49;11.90;;;3.63;;
6424;SDS011;12193;42.642;23.384;2023-07-20T16:09:19;12.17;;;3.43;;
6424;SDS011;12193;42.642;23.384;2023-07-20T16:11:48;10.60;;;3.10;;
6424;SDS011;12193;42.642;23.384;2023-07-20T16:14:17;11.33;;;4.70;;
6424;SDS011;12193;42.642;23.384;2023-07-20T16:16:47;11.27;;;3.83;;
6424;SDS011;12193;42.642;23.384;2023-07-20T16:19:16;7.50;;;3.53;;
6424;SDS011;12193;42.642;23.384;2023-07-20T16:21:48;11.00;;;3.13;;
6424;SDS011;12193;42.642;23.384;2023-07-20T16:24:17;10.90;;;3.30;;
6424;SDS011;12193;42.642;23.384;2023-07-20T16:26:49;6.90;;;3.10;;
6424;SDS011;12193;42.642;23.384;2023-07-20T16:29:18;5.17;;;2.90;;
6424;SDS011;12193;42.642;23.384;2023-07-20T16:31:50;8.37;;;3.20;;
6424;SDS011;12193;42.642;23.384;2023-07-20T16:34:19;8.93;;;3.47;;
6424;SDS011;12193;42.642;23.384;2023-07-20T16:36:51;7.30;;;3.00;;
6424;SDS011;12193;42.642;23.384;2023-07-20T16:39:22;9.03;;;2.93;;
6424;SDS011;12193;42.642;23.384;2023-07-20T16:41:51;9.43;;;3.77;;
6424;SDS011;12193;42.642;23.384;2023-07-20T16:44:20;10.33;;;3.07;;
6424;SDS011;12193;42.642;23.384;2023-07-20T16:46:49;8.43;;;3.00;;
6424;SDS011;12193;42.642;23.384;2023-07-20T16:49:18;7.03;;;2.80;;
6424;SDS011;12193;42.642;23.384;2023-07-20T16:51:51;9.70;;;2.70;;
6424;SDS011;12193;42.642;23.384;2023-07-20T16:54:21;13.67;;;3.33;;
6424;SDS011;12193;42.642;23.384;2023-07-20T16:56:51;5.73;;;2.83;;
6424;SDS011;12193;42.642;23.384;2023-07-20T16:59:20;6.07;;;2.80;;
6424;SDS011;12193;42.642;23.384;2023-07-20T17:01:50;8.17;;;3.10;;
6424;SDS011;12193;42.642;23.384;2023-07-20T17:04:20;6.60;;;3.03;;
6424;SDS011;12193;42.642;23.384;2023-07-20T17:06:52;6.00;;;3.10;;
6424;SDS011;12193;42.642;23.384;2023-07-20T17:09:24;8.30;;;3.27;;
6424;SDS011;12193;42.642;23.384;2023-07-20T17:11:53;6.70;;;3.03;;
6424;SDS011;12193;42.642;23.384;2023-07-20T17:14:22;8.07;;;3.00;;
6424;SDS011;12193;42.642;23.384;2023-07-20T17:16:52;7.67;;;3.10;;
6424;SDS011;12193;42.642;23.384;2023-07-20T17:19:21;6.97;;;2.93;;
6424;SDS011;12193;42.642;23.384;2023-07-20T17:21:53;6.40;;;3.00;;
6424;SDS011;12193;42.642;23.384;2023-07-20T17:24:23;6.27;;;2.93;;
6424;SDS011;12193;42.642;23.384;2023-07-20T17:26:52;7.63;;;3.20;;
6424;SDS011;12193;42.642;23.384;2023-07-20T17:29:21;12.70;;;3.57;;
6424;SDS011;12193;42.642;23.384;2023-07-20T17:31:51;7.20;;;3.50;;
6424;SDS011;12193;42.642;23.384;2023-07-20T17:34:20;6.63;;;3.20;;
6424;SDS011;12193;42.642;23.384;2023-07-20T17:36:50;10.57;;;3.87;;
6424;SDS011;12193;42.642;23.384;2023-07-20T17:39:21;6.57;;;3.47;;
6424;SDS011;12193;42.642;23.384;2023-07-20T17:41:52;8.37;;;3.60;;
6424;SDS011;12193;42.642;23.384;2023-07-20T17:44:22;8.43;;;3.53;;
6424;SDS011;12193;42.642;23.384;2023-07-20T17:46:51;9.57;;;3.13;;
6424;SDS011;12193;42.642;23.384;2023-07-20T17:49:20;6.93;;;3.27;;
6424;SDS011;12193;42.642;23.384;2023-07-20T17:51:49;5.03;;;2.97;;
6424;SDS011;12193;42.642;23.384;2023-07-20T17:54:21;7.67;;;3.07;;
6424;SDS011;12193;42.642;23.384;2023-07-20T17:56:51;5.33;;;2.87;;
6424;SDS011;12193;42.642;23.384;2023-07-20T17:59:20;5.73;;;2.80;;
6424;SDS011;12193;42.642;23.384;2023-07-20T18:01:49;9.60;;;3.10;;
6424;SDS011;12193;42.642;23.384;2023-07-20T18:04:19;9.33;;;3.40;;
6424;SDS011;12193;42.642;23.384;2023-07-20T18:06:48;7.23;;;3.17;;
6424;SDS011;12193;42.642;23.384;2023-07-20T18:09:17;5.37;;;2.70;;